PH-0091 weather

Bundagul Airstrip (Highway Strip)
Mabalacat, Pampanga Province, Philippines

Public forecast

Using degrees Celsius for public forecast. Weather courtesy of forecast.io.

METAR (pilot weather report)

Closest report is Diosdado Macapagal International Airport, 4.0 nm (7.4 km) SW. Retrieved 2019/09/23 03:00 UTC (45 minutes ago):

RPLC 230300Z 34002KT 7000 SCT020 BKN300 31/23 Q1014 NOSIG RMK A2994

TAF (pilot weather forecast)

Forecast is more than 12 hours old.

Closest forecast is Diosdado Macapagal International Airport, 4.0 nm (7.4 km) SW. Retrieved 2019/09/22 00:03 UTC (1 day ago):

TAF RPLC 222300Z 2300/2406 18006KT 8000 SCT020 BKN300 TX31/2306Z TN23/2322Z TEMPO 2300/2306 22008KT 5000 HZ SCT020 BKN100